createdAt,value
2018-09-12T00:00:23.219Z,23.6
2018-09-12T00:00:55.898Z,23.5
2018-09-12T00:01:27.937Z,23.56
2018-09-12T00:02:00.050Z,23.56
2018-09-12T00:02:32.110Z,23.57
2018-09-12T00:03:04.148Z,23.57
2018-09-12T00:03:36.191Z,23.55
2018-09-12T00:04:08.208Z,23.56
2018-09-12T00:04:40.241Z,23.53
2018-09-12T00:05:12.283Z,23.59
2018-09-12T00:05:44.349Z,23.56
2018-09-12T00:06:16.389Z,23.52
2018-09-12T00:06:48.482Z,23.53
2018-09-12T00:07:20.622Z,23.55
2018-09-12T00:07:52.688Z,23.57
2018-09-12T00:08:24.748Z,23.59
2018-09-12T00:08:56.817Z,23.53
2018-09-12T00:09:28.885Z,23.53
2018-09-12T00:10:00.945Z,23.48
2018-09-12T00:10:33.028Z,23.53
2018-09-12T00:11:05.056Z,23.55
2018-09-12T00:11:37.113Z,23.47
2018-09-12T00:12:09.193Z,23.56
2018-09-12T00:12:41.390Z,23.47
2018-09-12T00:13:13.460Z,23.52
2018-09-12T00:13:45.514Z,23.53
2018-09-12T00:14:17.586Z,23.47
2018-09-12T00:14:49.634Z,23.6
2018-09-12T00:15:21.676Z,23.45
2018-09-12T00:15:53.727Z,23.59
2018-09-12T00:16:25.764Z,23.53
2018-09-12T00:16:57.807Z,23.5
2018-09-12T00:17:29.879Z,23.59
2018-09-12T00:18:01.953Z,23.47
2018-09-12T00:18:34.038Z,23.48
2018-09-12T00:19:06.072Z,23.48
2018-09-12T00:19:38.132Z,23.45
2018-09-12T00:20:10.206Z,23.53
2018-09-12T00:20:42.327Z,23.45
2018-09-12T00:21:14.489Z,23.47
2018-09-12T00:21:46.872Z,23.45
2018-09-12T00:22:18.954Z,23.48
2018-09-12T00:22:50.985Z,23.45
2018-09-12T00:23:23.141Z,23.48
2018-09-12T00:23:55.278Z,23.45
2018-09-12T00:24:27.295Z,23.44
2018-09-12T00:24:59.339Z,23.41
2018-09-12T00:25:31.410Z,23.45
2018-09-12T00:26:03.451Z,23.45
2018-09-12T00:26:35.503Z,23.48
2018-09-12T00:27:07.578Z,23.47
2018-09-12T00:27:39.696Z,23.45
2018-09-12T00:28:11.734Z,23.42
2018-09-12T00:28:43.749Z,23.47
2018-09-12T00:29:15.815Z,23.47
2018-09-12T00:29:47.802Z,23.45
2018-09-12T00:30:19.832Z,23.45
2018-09-12T00:30:51.910Z,23.45
2018-09-12T00:31:23.955Z,23.45
2018-09-12T00:31:55.999Z,23.47
2018-09-12T00:32:28.077Z,23.47
2018-09-12T00:33:00.171Z,23.44
2018-09-12T00:33:32.215Z,23.47
2018-09-12T00:34:04.293Z,23.44
2018-09-12T00:34:36.359Z,23.48
2018-09-12T00:35:08.450Z,23.42
2018-09-12T00:35:41.112Z,23.45
2018-09-12T00:36:13.200Z,23.42
2018-09-12T00:36:45.322Z,23.45
2018-09-12T00:37:17.405Z,23.44
2018-09-12T00:37:49.488Z,23.45
2018-09-12T00:38:21.524Z,23.41
2018-09-12T00:38:53.599Z,23.38
2018-09-12T00:39:26.460Z,23.42
2018-09-12T00:39:58.530Z,23.45
2018-09-12T00:40:30.596Z,23.42
2018-09-12T00:41:02.653Z,23.37
2018-09-12T00:41:34.695Z,23.41
2018-09-12T00:42:06.762Z,23.44
2018-09-12T00:42:38.806Z,23.41
2018-09-12T00:43:10.878Z,23.38
2018-09-12T00:43:42.952Z,23.44
2018-09-12T00:44:14.985Z,23.4
2018-09-12T00:44:47.041Z,23.35
2018-09-12T00:45:19.110Z,23.37
2018-09-12T00:45:51.174Z,23.38
2018-09-12T00:46:23.216Z,23.44
2018-09-12T00:46:55.393Z,23.42
2018-09-12T00:47:27.516Z,23.38
2018-09-12T00:47:59.573Z,23.41
2018-09-12T00:48:31.684Z,23.45
2018-09-12T00:49:03.774Z,23.37
2018-09-12T00:49:35.867Z,23.48
2018-09-12T00:50:07.911Z,23.45
2018-09-12T00:50:39.966Z,23.4
2018-09-12T00:51:12.038Z,23.37
2018-09-12T00:51:44.076Z,23.37
2018-09-12T00:52:16.125Z,23.37
2018-09-12T00:52:48.159Z,23.44
2018-09-12T00:53:20.183Z,23.41
2018-09-12T00:53:52.275Z,23.28
2018-09-12T00:54:24.293Z,23.41
2018-09-12T00:54:56.384Z,23.44
2018-09-12T00:55:28.542Z,23.35
2018-09-12T00:56:00.574Z,23.37
2018-09-12T00:56:32.638Z,23.37
2018-09-12T00:57:04.699Z,23.34
2018-09-12T00:57:36.722Z,23.42
2018-09-12T00:58:08.816Z,23.4
2018-09-12T00:58:40.844Z,23.4
2018-09-12T00:59:12.935Z,23.38
2018-09-12T00:59:45.620Z,23.44
2018-09-12T01:00:17.690Z,23.4
2018-09-12T01:00:49.758Z,23.41
2018-09-12T01:01:21.828Z,23.45
2018-09-12T01:01:53.873Z,23.38
2018-09-12T01:02:25.930Z,23.38
2018-09-12T01:02:57.982Z,23.41
2018-09-12T01:03:30.040Z,23.4
2018-09-12T01:04:02.172Z,23.42
2018-09-12T01:04:34.264Z,23.38
2018-09-12T01:05:06.325Z,23.44
2018-09-12T01:05:38.381Z,23.35
2018-09-12T01:06:10.447Z,23.38
2018-09-12T01:06:42.521Z,23.34
2018-09-12T01:07:14.603Z,23.38
2018-09-12T01:07:46.647Z,23.4
2018-09-12T01:08:18.744Z,23.4
2018-09-12T01:08:50.810Z,23.38
2018-09-12T01:09:22.867Z,23.34
2018-09-12T01:09:54.906Z,23.38
2018-09-12T01:10:26.924Z,23.34
2018-09-12T01:10:59.013Z,23.37
2018-09-12T01:11:31.096Z,23.41
2018-09-12T01:12:03.170Z,23.4
2018-09-12T01:12:35.224Z,23.28
2018-09-12T01:13:07.283Z,23.4
2018-09-12T01:13:39.316Z,23.32
2018-09-12T01:14:11.370Z,23.26
2018-09-12T01:14:43.433Z,23.42
2018-09-12T01:15:15.478Z,23.28
2018-09-12T01:15:47.514Z,23.4
2018-09-12T01:16:19.608Z,23.37
2018-09-12T01:16:51.659Z,23.35
2018-09-12T01:17:23.698Z,23.28
2018-09-12T01:17:55.780Z,23.29
2018-09-12T01:18:27.788Z,23.29
2018-09-12T01:18:59.824Z,23.38
2018-09-12T01:19:31.890Z,23.37
2018-09-12T01:20:03.960Z,23.42
2018-09-12T01:20:36.018Z,23.37
2018-09-12T01:21:08.048Z,23.32
2018-09-12T01:21:40.176Z,23.34
2018-09-12T01:22:12.263Z,23.38
2018-09-12T01:22:44.311Z,23.34
2018-09-12T01:23:16.382Z,23.26
2018-09-12T01:23:48.431Z,23.34
2018-09-12T01:24:20.493Z,23.26
2018-09-12T01:24:52.563Z,23.28
2018-09-12T01:25:24.664Z,23.21
2018-09-12T01:25:56.739Z,23.37
2018-09-12T01:26:28.822Z,23.32
2018-09-12T01:27:00.867Z,23.25
2018-09-12T01:27:32.899Z,23.37
2018-09-12T01:28:05.040Z,23.19
2018-09-12T01:28:37.066Z,23.26
2018-09-12T01:29:09.159Z,23.19
2018-09-12T01:29:41.213Z,23.29
2018-09-12T01:30:13.262Z,23.22
2018-09-12T01:30:45.421Z,23.24
2018-09-12T01:31:17.542Z,23.34
2018-09-12T01:31:50.312Z,23.24
2018-09-12T01:32:22.491Z,23.25
2018-09-12T01:32:54.528Z,23.29
2018-09-12T01:33:26.586Z,23.29
2018-09-12T01:33:58.647Z,23.25
2018-09-12T01:34:30.662Z,23.26
2018-09-12T01:35:03.550Z,23.24
2018-09-12T01:35:35.626Z,23.21
2018-09-12T01:36:07.667Z,23.28
2018-09-12T01:36:39.722Z,23.29
2018-09-12T01:37:11.753Z,23.25
2018-09-12T01:37:43.832Z,23.22
2018-09-12T01:38:15.951Z,23.28
2018-09-12T01:38:48.075Z,23.21
2018-09-12T01:39:20.156Z,23.21
2018-09-12T01:39:52.216Z,23.24
2018-09-12T01:40:24.310Z,23.19
2018-09-12T01:40:56.499Z,23.22
2018-09-12T01:41:28.579Z,23.25
2018-09-12T01:42:00.637Z,23.25
2018-09-12T01:42:32.659Z,23.28
2018-09-12T01:43:04.747Z,23.21
2018-09-12T01:43:36.790Z,23.19
2018-09-12T01:44:08.776Z,23.21
2018-09-12T01:44:40.855Z,23.26
2018-09-12T01:45:12.950Z,23.24
2018-09-12T01:45:44.997Z,23.28
2018-09-12T01:46:16.987Z,23.28
2018-09-12T01:46:49.044Z,23.26
2018-09-12T01:47:21.188Z,23.25
2018-09-12T01:47:53.312Z,23.21
2018-09-12T01:48:25.804Z,23.28
2018-09-12T01:48:57.845Z,23.25
2018-09-12T01:49:29.886Z,23.18
2018-09-12T01:50:02.085Z,23.28
2018-09-12T01:50:34.128Z,23.21
2018-09-12T01:51:06.209Z,23.24
2018-09-12T01:51:38.308Z,23.25
2018-09-12T01:52:10.383Z,23.25
2018-09-12T01:52:42.423Z,23.25
2018-09-12T01:53:14.457Z,23.26
2018-09-12T01:53:46.566Z,23.26
2018-09-12T01:54:18.624Z,23.26
2018-09-12T01:54:50.708Z,23.24
2018-09-12T01:55:22.764Z,23.28
2018-09-12T01:55:54.825Z,23.21
2018-09-12T01:56:26.958Z,23.21
2018-09-12T01:56:59.027Z,23.19
2018-09-12T01:57:31.141Z,23.24
2018-09-12T01:58:03.162Z,23.28
2018-09-12T01:58:35.234Z,23.24
2018-09-12T01:59:07.280Z,23.21
2018-09-12T01:59:39.345Z,23.18
2018-09-12T02:00:11.335Z,23.26
2018-09-12T02:00:43.416Z,23.24
2018-09-12T02:01:15.500Z,23.22
2018-09-12T02:01:47.544Z,23.21
2018-09-12T02:02:19.615Z,23.26
2018-09-12T02:02:51.660Z,23.18
2018-09-12T02:03:23.814Z,23.21
2018-09-12T02:03:55.858Z,23.14
2018-09-12T02:04:27.903Z,23.14
2018-09-12T02:04:59.976Z,23.15
2018-09-12T02:05:32.041Z,23.21
2018-09-12T02:06:04.111Z,23.15
2018-09-12T02:06:36.113Z,23.15
2018-09-12T02:07:08.132Z,23.22
2018-09-12T02:07:40.216Z,23.1
2018-09-12T02:08:12.278Z,23.07
2018-09-12T02:08:44.306Z,23.12
2018-09-12T02:09:16.311Z,23.15
2018-09-12T02:09:48.362Z,23.15
2018-09-12T02:10:20.407Z,23.06
2018-09-12T02:10:52.426Z,23.12
2018-09-12T02:11:25.104Z,23.15
2018-09-12T02:11:57.192Z,23.15
2018-09-12T02:12:29.299Z,23.09
2018-09-12T02:13:01.348Z,23.16
2018-09-12T02:13:33.376Z,23.1
2018-09-12T02:14:05.513Z,23.09
2018-09-12T02:14:37.599Z,23.15
2018-09-12T02:15:09.658Z,23.15
2018-09-12T02:15:41.728Z,23.06
2018-09-12T02:16:13.790Z,23.14
2018-09-12T02:16:45.834Z,23.09
2018-09-12T02:17:17.886Z,23.09
2018-09-12T02:17:50.086Z,23.14
2018-09-12T02:18:22.186Z,23.16
2018-09-12T02:18:54.277Z,23.09
2018-09-12T02:19:26.334Z,23.15
2018-09-12T02:19:58.400Z,23.1
2018-09-12T02:20:30.441Z,23.18
2018-09-12T02:21:02.500Z,23.09
2018-09-12T02:21:34.548Z,23.15
2018-09-12T02:22:06.627Z,23.06
2018-09-12T02:22:38.660Z,23.14
2018-09-12T02:23:10.762Z,23.15
2018-09-12T02:23:42.786Z,23.12
2018-09-12T02:24:14.868Z,23.12
2018-09-12T02:24:46.906Z,23.1
2018-09-12T02:25:19.685Z,23.1
2018-09-12T02:25:51.750Z,23.04
2018-09-12T02:26:23.866Z,23.09
2018-09-12T02:26:55.935Z,23.09
2018-09-12T02:27:27.986Z,23.16
2018-09-12T02:28:00.051Z,23.07
2018-09-12T02:28:32.137Z,23.07
2018-09-12T02:29:04.174Z,23.1
2018-09-12T02:29:36.175Z,23.06
2018-09-12T02:30:08.767Z,23
2018-09-12T02:30:40.857Z,23.06
2018-09-12T02:31:12.915Z,23.07
2018-09-12T02:31:45.029Z,23.09
2018-09-12T02:32:17.089Z,23.07
2018-09-12T02:32:49.154Z,23.04
2018-09-12T02:33:22.099Z,23.07
2018-09-12T02:33:54.180Z,23.09
2018-09-12T02:34:26.262Z,23.04
2018-09-12T02:34:58.411Z,23
2018-09-12T02:35:30.450Z,23.09
2018-09-12T02:36:02.507Z,23.1
2018-09-12T02:36:34.580Z,23.09
2018-09-12T02:37:06.665Z,23.07
2018-09-12T02:37:38.776Z,23.07
2018-09-12T02:38:10.820Z,23.06
2018-09-12T02:38:42.895Z,23.04
2018-09-12T02:39:14.946Z,23.01
2018-09-12T02:39:46.956Z,23.07
2018-09-12T02:40:19.105Z,23.06
2018-09-12T02:40:51.154Z,23.09
2018-09-12T02:41:23.219Z,23.03
2018-09-12T02:41:55.370Z,23.07
2018-09-12T02:42:27.444Z,23.03
2018-09-12T02:42:59.448Z,23.14
2018-09-12T02:43:31.512Z,23.06
2018-09-12T02:44:03.574Z,23.09
2018-09-12T02:44:35.623Z,23.03
2018-09-12T02:45:07.788Z,23.06
2018-09-12T02:45:39.860Z,23.06
2018-09-12T02:46:11.891Z,23.03
2018-09-12T02:46:43.957Z,23.06
2018-09-12T02:47:16.014Z,23.1
2018-09-12T02:47:48.086Z,23.06
2018-09-12T02:48:20.146Z,23.12
2018-09-12T02:48:52.216Z,23.06
2018-09-12T02:49:24.251Z,23.04
2018-09-12T02:49:56.321Z,23.07
2018-09-12T02:50:28.383Z,23.03
2018-09-12T02:51:00.444Z,23.07
2018-09-12T02:51:32.487Z,23.06
2018-09-12T02:52:04.568Z,23.06
2018-09-12T02:52:36.612Z,23.04
2018-09-12T02:53:08.667Z,23.07
2018-09-12T02:53:40.747Z,23.15
2018-09-12T02:54:12.799Z,23.06
2018-09-12T02:54:44.858Z,23.04
2018-09-12T02:55:16.987Z,23.06
2018-09-12T02:55:49.033Z,23.01
2018-09-12T02:56:21.109Z,23.09
2018-09-12T02:56:53.135Z,23.01
2018-09-12T02:57:25.183Z,23.04
2018-09-12T02:57:57.296Z,23.09
2018-09-12T02:58:29.310Z,23.03
2018-09-12T02:59:01.387Z,23.04
2018-09-12T02:59:33.492Z,23.04
2018-09-12T03:00:06.390Z,23.03
2018-09-12T03:00:38.473Z,22.97
2018-09-12T03:01:10.608Z,23.12
2018-09-12T03:01:42.804Z,23.07
2018-09-12T03:02:14.866Z,23
2018-09-12T03:02:46.924Z,23.01
2018-09-12T03:03:18.972Z,23.04
2018-09-12T03:03:51.034Z,23.04
2018-09-12T03:04:23.147Z,23
2018-09-12T03:04:55.140Z,23.06
2018-09-12T03:05:27.188Z,23.09
2018-09-12T03:05:59.272Z,23.04
2018-09-12T03:06:31.380Z,23.06
2018-09-12T03:07:03.428Z,23.06
2018-09-12T03:07:35.449Z,22.99
2018-09-12T03:08:07.503Z,23.01
2018-09-12T03:08:40.362Z,23.07
2018-09-12T03:09:12.438Z,23.04
2018-09-12T03:09:44.605Z,22.97
2018-09-12T03:10:16.679Z,23
2018-09-12T03:10:48.757Z,23.04
2018-09-12T03:11:20.838Z,23.06
2018-09-12T03:11:52.915Z,23.03
2018-09-12T03:12:24.982Z,23.03
2018-09-12T03:12:57.068Z,23.06
2018-09-12T03:13:29.183Z,23.04
2018-09-12T03:14:01.215Z,23.06
2018-09-12T03:14:33.283Z,23.03
2018-09-12T03:15:05.365Z,23.03
2018-09-12T03:15:37.510Z,23.03
2018-09-12T03:16:09.583Z,23
2018-09-12T03:16:41.649Z,23.03
2018-09-12T03:17:13.708Z,23.03
2018-09-12T03:17:45.752Z,23.03
2018-09-12T03:18:17.776Z,23.03
2018-09-12T03:18:49.837Z,22.99
2018-09-12T03:19:21.895Z,23.01
2018-09-12T03:19:53.972Z,23.03
2018-09-12T03:20:26.099Z,23.03
2018-09-12T03:20:58.289Z,23.04
2018-09-12T03:21:30.243Z,23.04
2018-09-12T03:22:02.295Z,23.06
2018-09-12T03:22:34.372Z,23.06
2018-09-12T03:23:06.428Z,23.06
2018-09-12T03:23:38.525Z,22.96
2018-09-12T03:24:10.646Z,23.03
2018-09-12T03:24:42.701Z,23.07
2018-09-12T03:25:14.736Z,23.03
2018-09-12T03:25:46.804Z,22.99
2018-09-12T03:26:18.837Z,23.04
2018-09-12T03:26:50.851Z,23.06
2018-09-12T03:27:22.879Z,23.03
2018-09-12T03:27:55.707Z,23.01
2018-09-12T03:28:27.732Z,22.99
2018-09-12T03:28:59.851Z,23.04
2018-09-12T03:29:31.902Z,23.03
2018-09-12T03:30:03.922Z,23.01
2018-09-12T03:30:35.967Z,23.06
2018-09-12T03:31:08.037Z,23
2018-09-12T03:31:40.127Z,23.07
2018-09-12T03:32:12.187Z,23.07
2018-09-12T03:32:44.261Z,22.99
2018-09-12T03:33:16.315Z,22.94
2018-09-12T03:33:48.379Z,23.03
2018-09-12T03:34:20.446Z,23
2018-09-12T03:34:52.460Z,22.97
2018-09-12T03:35:24.514Z,23.04
2018-09-12T03:35:56.594Z,23.03
2018-09-12T03:36:28.625Z,23.03
2018-09-12T03:37:00.690Z,22.96
2018-09-12T03:37:32.760Z,23.01
2018-09-12T03:38:04.920Z,23
2018-09-12T03:38:36.972Z,23.07
2018-09-12T03:39:09.028Z,23.07
2018-09-12T03:39:41.094Z,22.99
2018-09-12T03:40:13.178Z,23.06
2018-09-12T03:40:45.254Z,22.99
2018-09-12T03:41:17.297Z,22.94
2018-09-12T03:41:49.330Z,23
2018-09-12T03:42:21.519Z,23.03
2018-09-12T03:42:53.571Z,22.94
2018-09-12T03:43:25.588Z,23
2018-09-12T03:43:57.644Z,23.03
2018-09-12T03:44:29.727Z,23.04
2018-09-12T03:45:01.801Z,23.06
2018-09-12T03:45:33.837Z,23
2018-09-12T03:46:05.913Z,22.96
2018-09-12T03:46:37.980Z,23.04
2018-09-12T03:47:10.162Z,23.01
2018-09-12T03:47:42.221Z,22.96
2018-09-12T03:48:14.289Z,23.06
2018-09-12T03:48:46.345Z,22.99
2018-09-12T03:49:18.496Z,23.06
2018-09-12T03:49:50.698Z,22.96
2018-09-12T03:50:22.747Z,22.99
2018-09-12T03:50:54.832Z,22.94
2018-09-12T03:51:26.832Z,22.97
2018-09-12T03:51:58.904Z,23.03
2018-09-12T03:52:31.047Z,22.97
2018-09-12T03:53:03.125Z,22.97
2018-09-12T03:53:35.202Z,22.92
2018-09-12T03:54:07.269Z,22.99
2018-09-12T03:54:39.315Z,23
2018-09-12T03:55:11.448Z,22.99
2018-09-12T03:55:43.540Z,22.99
2018-09-12T03:56:15.582Z,23
2018-09-12T03:56:47.657Z,23
2018-09-12T03:57:19.673Z,23
2018-09-12T03:57:51.694Z,23.03
2018-09-12T03:58:23.772Z,22.99
2018-09-12T03:58:55.846Z,22.96
2018-09-12T03:59:27.895Z,23.01
2018-09-12T03:59:59.990Z,23
2018-09-12T04:00:32.078Z,23
2018-09-12T04:01:04.125Z,22.97
2018-09-12T04:01:36.277Z,23.01
2018-09-12T04:02:08.349Z,22.96
2018-09-12T04:02:40.421Z,23.04
2018-09-12T04:03:12.551Z,22.99
2018-09-12T04:03:44.616Z,22.94
2018-09-12T04:04:16.765Z,22.91
2018-09-12T04:04:48.841Z,22.96
2018-09-12T04:05:20.942Z,23.06
2018-09-12T04:05:53.157Z,23
2018-09-12T04:06:25.266Z,22.91
2018-09-12T04:06:57.333Z,22.91
2018-09-12T04:07:29.373Z,23.01
2018-09-12T04:08:01.462Z,22.94
2018-09-12T04:08:33.610Z,22.96
2018-09-12T04:09:05.639Z,22.96
2018-09-12T04:09:37.682Z,22.96
2018-09-12T04:10:09.750Z,22.99
2018-09-12T04:10:41.788Z,22.92
2018-09-12T04:11:13.819Z,22.97
2018-09-12T04:11:45.968Z,22.91
2018-09-12T04:12:18.117Z,22.92
2018-09-12T04:12:50.126Z,22.94
2018-09-12T04:13:22.193Z,22.89
2018-09-12T04:13:54.268Z,22.91
2018-09-12T04:14:26.323Z,22.94
2018-09-12T04:14:58.384Z,22.96
2018-09-12T04:15:30.402Z,22.96
2018-09-12T04:16:02.452Z,22.94
2018-09-12T04:16:34.617Z,22.91
2018-09-12T04:17:06.681Z,23.01
2018-09-12T04:17:38.767Z,22.92
2018-09-12T04:18:10.803Z,22.94
2018-09-12T04:18:42.874Z,22.97
2018-09-12T04:19:14.988Z,22.96
2018-09-12T04:19:47.045Z,22.94
2018-09-12T04:20:20.068Z,22.88
2018-09-12T04:20:52.136Z,22.91
2018-09-12T04:21:24.270Z,22.96
2018-09-12T04:21:56.310Z,22.97
2018-09-12T04:22:28.374Z,22.94
2018-09-12T04:23:00.434Z,22.91
2018-09-12T04:23:32.486Z,22.99
2018-09-12T04:24:04.555Z,22.92
2018-09-12T04:24:36.631Z,22.89
2018-09-12T04:25:08.676Z,22.94
2018-09-12T04:25:40.734Z,22.92
2018-09-12T04:26:12.808Z,22.94
2018-09-12T04:26:44.857Z,22.88
2018-09-12T04:27:16.920Z,22.86
2018-09-12T04:27:49.018Z,22.94
2018-09-12T04:28:21.037Z,22.91
2018-09-12T04:28:53.139Z,22.89
2018-09-12T04:29:25.218Z,22.92
2018-09-12T04:29:57.261Z,22.99
2018-09-12T04:30:29.361Z,22.97
2018-09-12T04:31:01.429Z,22.91
2018-09-12T04:31:33.501Z,22.91
2018-09-12T04:32:05.507Z,22.94
2018-09-12T04:32:37.564Z,22.89
2018-09-12T04:33:09.625Z,22.91
2018-09-12T04:33:41.677Z,22.94
2018-09-12T04:34:13.797Z,22.91
2018-09-12T04:34:45.848Z,22.86
2018-09-12T04:35:17.929Z,22.94
2018-09-12T04:35:49.967Z,22.97
2018-09-12T04:36:22.027Z,22.97
2018-09-12T04:36:54.106Z,22.96
2018-09-12T04:37:26.131Z,22.89
2018-09-12T04:37:58.217Z,22.97
2018-09-12T04:38:30.335Z,22.92
2018-09-12T04:39:02.352Z,22.94
2018-09-12T04:39:34.379Z,22.91
2018-09-12T04:40:06.446Z,22.84
2018-09-12T04:40:38.549Z,22.97
2018-09-12T04:41:10.601Z,22.96
2018-09-12T04:41:42.652Z,22.91
2018-09-12T04:42:14.697Z,22.96
2018-09-12T04:42:46.854Z,22.86
2018-09-12T04:43:18.817Z,22.91
2018-09-12T04:43:50.851Z,22.91
2018-09-12T04:44:22.893Z,22.96
2018-09-12T04:44:54.967Z,22.91
2018-09-12T04:45:27.026Z,22.89
2018-09-12T04:45:59.188Z,22.97
2018-09-12T04:46:31.211Z,22.91
2018-09-12T04:47:03.225Z,22.96
2018-09-12T04:47:35.382Z,22.89
2018-09-12T04:48:08.148Z,22.96
2018-09-12T04:48:40.197Z,22.97
2018-09-12T04:49:12.292Z,22.91
2018-09-12T04:49:44.850Z,22.91
2018-09-12T04:50:16.907Z,22.91
2018-09-12T04:50:49.075Z,22.91
2018-09-12T04:51:21.142Z,22.96
2018-09-12T04:51:53.255Z,22.89
2018-09-12T04:52:25.410Z,22.99
2018-09-12T04:52:57.441Z,22.85
2018-09-12T04:53:29.456Z,22.91
2018-09-12T04:54:01.564Z,22.91
2018-09-12T04:54:33.585Z,22.94
2018-09-12T04:55:05.656Z,22.96
2018-09-12T04:55:37.702Z,22.88
2018-09-12T04:56:09.768Z,22.89
2018-09-12T04:56:41.814Z,22.96
2018-09-12T04:57:13.892Z,22.89
2018-09-12T04:57:46.064Z,22.91
2018-09-12T04:58:18.082Z,22.91
2018-09-12T04:58:50.217Z,22.89
2018-09-12T04:59:22.266Z,22.89
2018-09-12T04:59:54.333Z,22.94
2018-09-12T05:00:26.369Z,22.92
2018-09-12T05:00:58.427Z,22.94
2018-09-12T05:01:30.457Z,22.91
2018-09-12T05:02:02.532Z,22.91
2018-09-12T05:02:34.594Z,22.91
2018-09-12T05:03:06.630Z,22.88
2018-09-12T05:03:38.687Z,22.91
2018-09-12T05:04:10.774Z,22.92
2018-09-12T05:04:42.819Z,22.92
2018-09-12T05:05:14.892Z,22.85
2018-09-12T05:05:46.961Z,22.89
2018-09-12T05:06:19.013Z,22.96
2018-09-12T05:06:51.137Z,22.94
2018-09-12T05:07:23.188Z,22.86
2018-09-12T05:07:55.253Z,22.94
2018-09-12T05:08:27.272Z,22.94
2018-09-12T05:08:59.339Z,22.86
2018-09-12T05:09:32.097Z,22.96
2018-09-12T05:10:04.178Z,22.96
2018-09-12T05:10:36.326Z,22.88
2018-09-12T05:11:08.344Z,22.89
2018-09-12T05:11:40.445Z,22.94
2018-09-12T05:12:12.518Z,22.89
2018-09-12T05:12:44.541Z,22.92
2018-09-12T05:13:16.584Z,22.94
2018-09-12T05:13:48.642Z,22.96
2018-09-12T05:14:20.705Z,22.92
2018-09-12T05:18:36.380Z,22.92
2018-09-12T05:19:08.421Z,22.86
2018-09-12T05:19:40.472Z,22.86
2018-09-12T05:20:12.517Z,22.94
2018-09-12T05:20:44.562Z,22.96
2018-09-12T05:21:16.602Z,22.92
2018-09-12T05:21:48.680Z,22.88
2018-09-12T05:22:20.738Z,22.94
2018-09-12T05:22:52.872Z,22.92
2018-09-12T05:23:24.949Z,22.89
2018-09-12T05:23:56.996Z,22.92
2018-09-12T05:24:29.153Z,22.89
2018-09-12T05:25:01.219Z,22.96
2018-09-12T05:25:33.323Z,22.94
2018-09-12T05:26:05.488Z,22.91
2018-09-12T05:26:37.652Z,22.91
2018-09-12T05:27:09.692Z,22.96
2018-09-12T05:27:41.752Z,22.92
2018-09-12T05:28:13.931Z,22.92
2018-09-12T05:28:45.995Z,22.88
2018-09-12T05:29:18.187Z,22.88
2018-09-12T05:29:50.219Z,22.88
2018-09-12T05:30:22.240Z,22.89
2018-09-12T05:30:54.296Z,22.94
2018-09-12T05:31:26.443Z,22.89
2018-09-12T05:31:58.475Z,22.88
2018-09-12T05:32:30.546Z,22.91
2018-09-12T05:33:02.658Z,22.92
2018-09-12T05:33:34.684Z,22.94
2018-09-12T05:34:06.716Z,22.88
2018-09-12T05:34:38.798Z,22.89
2018-09-12T05:35:10.853Z,22.89
2018-09-12T05:35:43.031Z,22.96
2018-09-12T05:36:15.114Z,22.94
2018-09-12T05:36:47.287Z,22.91
2018-09-12T05:37:19.400Z,22.92
2018-09-12T05:37:51.532Z,22.91
2018-09-12T05:38:23.573Z,22.96
2018-09-12T05:38:55.630Z,22.89
2018-09-12T05:39:27.727Z,22.96
2018-09-12T05:39:59.717Z,22.89
2018-09-12T05:40:31.730Z,22.88
2018-09-12T05:41:03.794Z,22.96
2018-09-12T05:41:35.859Z,22.91
2018-09-12T05:42:07.908Z,22.96
2018-09-12T05:42:39.964Z,22.91
2018-09-12T05:43:12.113Z,22.85
2018-09-12T05:43:44.083Z,22.88
2018-09-12T05:44:16.110Z,22.92
2018-09-12T05:44:48.197Z,22.94
2018-09-12T05:45:20.790Z,22.92
2018-09-12T05:45:52.809Z,22.91
2018-09-12T05:46:24.824Z,22.91
2018-09-12T05:46:56.819Z,22.92
2018-09-12T05:47:28.862Z,22.92
2018-09-12T05:48:00.913Z,22.96
2018-09-12T05:48:32.942Z,22.94
2018-09-12T05:49:05.778Z,22.91
2018-09-12T05:49:38.367Z,22.88
2018-09-12T05:50:10.815Z,22.86
2018-09-12T05:50:43.383Z,22.94
2018-09-12T05:51:15.551Z,22.91
2018-09-12T05:51:48.236Z,22.91
2018-09-12T05:52:22.341Z,22.97
2018-09-12T05:52:56.773Z,22.97
2018-09-12T05:53:30.365Z,22.94
2018-09-12T05:54:02.487Z,22.96
2018-09-12T05:54:34.530Z,22.92
2018-09-12T05:55:06.591Z,22.89
2018-09-12T05:55:38.757Z,22.89
2018-09-12T05:56:10.953Z,22.91
2018-09-12T05:56:43.088Z,22.86
2018-09-12T05:57:15.097Z,22.94
2018-09-12T05:57:47.093Z,22.99
2018-09-12T05:58:19.188Z,22.89
2018-09-12T05:58:51.251Z,22.99
2018-09-12T05:59:23.315Z,22.91
2018-09-12T05:59:55.345Z,22.99
2018-09-12T06:00:27.395Z,22.96
2018-09-12T06:00:59.424Z,22.91
2018-09-12T06:01:31.508Z,22.94
2018-09-12T06:02:03.552Z,22.97
2018-09-12T06:02:35.563Z,22.94
2018-09-12T06:03:07.643Z,22.92
2018-09-12T06:03:39.688Z,22.96
2018-09-12T06:04:11.732Z,22.96
2018-09-12T06:04:43.804Z,22.91
2018-09-12T06:05:15.863Z,22.88
2018-09-12T06:05:47.955Z,22.92
2018-09-12T06:06:20.104Z,22.91
2018-09-12T06:06:52.401Z,22.94
2018-09-12T06:07:24.504Z,22.94
2018-09-12T06:07:56.642Z,22.99
2018-09-12T06:08:28.634Z,22.94
2018-09-12T06:09:00.650Z,22.89
2018-09-12T06:09:32.696Z,22.91
2018-09-12T06:10:04.839Z,22.94
2018-09-12T06:10:36.970Z,22.91
2018-09-12T06:11:09.049Z,22.91
2018-09-12T06:11:41.237Z,22.92
2018-09-12T06:12:13.419Z,22.91
2018-09-12T06:12:45.625Z,22.91
2018-09-12T06:13:17.678Z,22.86
2018-09-12T06:13:49.740Z,22.97
2018-09-12T06:14:22.085Z,22.94
2018-09-12T06:14:54.138Z,22.94
2018-09-12T06:15:26.216Z,22.88
2018-09-12T06:15:58.306Z,22.94
2018-09-12T06:16:30.342Z,22.91
2018-09-12T06:17:02.374Z,23.06
2018-09-12T06:17:34.442Z,22.99
2018-09-12T06:18:06.616Z,22.99
2018-09-12T06:18:38.632Z,23.04
2018-09-12T06:19:10.704Z,23.03
2018-09-12T06:19:42.742Z,23.01
2018-09-12T06:20:14.787Z,23.01
2018-09-12T06:20:47.009Z,22.97
2018-09-12T06:21:19.551Z,23.01
2018-09-12T06:21:51.596Z,23.01
2018-09-12T06:22:23.684Z,22.97
2018-09-12T06:22:55.747Z,23.03
2018-09-12T06:23:27.895Z,23.03
2018-09-12T06:23:59.907Z,23.06
2018-09-12T06:24:31.987Z,23.06
2018-09-12T06:25:04.037Z,23.04
2018-09-12T06:25:36.066Z,23.03
2018-09-12T06:26:08.118Z,23
2018-09-12T06:26:40.173Z,23.07
2018-09-12T06:27:12.222Z,23.01
2018-09-12T06:27:44.322Z,23.04
2018-09-12T06:28:16.398Z,23.03
2018-09-12T06:28:49.088Z,23.04
2018-09-12T06:29:21.158Z,23
2018-09-12T06:29:53.235Z,23.04
2018-09-12T06:30:25.337Z,23.07
2018-09-12T06:30:57.488Z,23
2018-09-12T06:31:29.619Z,23.04
2018-09-12T06:32:01.668Z,23.1
2018-09-12T06:32:33.737Z,23.09
2018-09-12T06:33:05.751Z,22.99
2018-09-12T06:33:37.818Z,23.04
2018-09-12T06:34:09.923Z,23.09
2018-09-12T06:34:42.279Z,23.07
2018-09-12T06:35:14.312Z,23.03
2018-09-12T06:35:46.372Z,23.1
2018-09-12T06:36:18.716Z,23.09
2018-09-12T06:36:50.784Z,23.06
2018-09-12T06:37:22.859Z,23.15
2018-09-12T06:37:54.962Z,23.09
2018-09-12T06:38:27.243Z,23.1
2018-09-12T06:38:59.472Z,23.07
2018-09-12T06:39:31.769Z,23.07
2018-09-12T06:40:03.898Z,23.06
2018-09-12T06:40:36.090Z,23.04
2018-09-12T06:41:08.252Z,23.03
2018-09-12T06:41:40.385Z,23.14
2018-09-12T06:42:12.411Z,23.03
2018-09-12T06:42:44.606Z,23.03
2018-09-12T06:43:16.876Z,23.07
2018-09-12T06:43:49.030Z,23.07
2018-09-12T06:44:21.158Z,23.06
2018-09-12T06:44:53.364Z,23.04
2018-09-12T06:45:25.425Z,23.14
2018-09-12T06:45:57.532Z,23.16
2018-09-12T06:46:29.591Z,23.07
2018-09-12T06:47:01.631Z,23.1
2018-09-12T06:47:33.860Z,23.03
2018-09-12T06:48:06.162Z,23.15
2018-09-12T06:48:38.216Z,23.14
2018-09-12T06:49:10.246Z,23.21
2018-09-12T06:49:42.380Z,23.12
2018-09-12T06:50:14.458Z,23.14
2018-09-12T06:50:46.652Z,23.15
2018-09-12T06:51:18.782Z,23.22
2018-09-12T06:51:50.841Z,23.24
2018-09-12T06:52:23.021Z,23.21
2018-09-12T06:52:55.211Z,23.26
2018-09-12T06:53:27.285Z,23.26
2018-09-12T06:53:59.314Z,23.22
2018-09-12T06:54:31.434Z,23.16
2018-09-12T06:55:03.541Z,23.24
2018-09-12T06:55:35.627Z,23.28
2018-09-12T06:56:07.707Z,23.24
2018-09-12T06:56:39.894Z,23.22
2018-09-12T06:57:12.290Z,23.28
2018-09-12T06:57:45.162Z,23.24
2018-09-12T06:58:17.188Z,23.25
2018-09-12T06:58:49.275Z,23.28